This is the latest recevied weather packets stored in our database for station/object N5ZP. If no packets are shown the sender has not sent any weather packets the latest 10 day(s).
| Time | Temp. | Humidity | Pressure | Rain* | Wind** | Luminosity | Snow |
|---|---|---|---|---|---|---|---|
| 1777439499 | 19.44° C | 86% | 1010.7 hPa | 0 mm | - | 0 W/m² | - |
| 1777439194 | 19.44° C | 87% | 1010.8 hPa | 0 mm | - | 0 W/m² | - |
| 1777438892 | 19.44° C | 87% | 1010.8 hPa | 0 mm | - | 0 W/m² | - |
| 1777438588 | 19.44° C | 87% | 1010.6 hPa | 0 mm | - | 0 W/m² | - |
| 1777438285 | 20° C | 87% | 1010.5 hPa | 0 mm | - | 0 W/m² | - |
| 1777437979 | 20° C | 87% | 1010.5 hPa | 0 mm | - | 0 W/m² | - |
| 1777437677 | 20° C | 88% | 1010.5 hPa | 0 mm | - | 0 W/m² | - |
| 1777435856 | 20.56° C | 90% | 1010.2 hPa | 0 mm | - | 0 W/m² | - |
| 1777435551 | 20.56° C | 90% | 1009.8 hPa | 0 mm | - | 0 W/m² | - |
| 1777432212 | 20.56° C | 94% | 1009.4 hPa | 0 mm | - | 0 W/m² | - |
| 1777425535 | 22.22° C | 93% | 1006.9 hPa | 0 mm | - | 1 W/m² | - |
| 1777423107 | 23.33° C | 90% | 1006.8 hPa | 0 mm | - | 30 W/m² | - |
| 1777422194 | 23.33° C | 90% | 1006.4 hPa | 0 mm | - | 45 W/m² | - |
| 1777421893 | 23.33° C | 90% | 1006 hPa | 0 mm | - | 54 W/m² | - |
| 1777421589 | 23.89° C | 89% | 1006.1 hPa | 0 mm | - | 53 W/m² | - |
| 1777420981 | 23.89° C | 90% | 1006.4 hPa | 0 mm | - | 87 W/m² | - |
| 1777419464 | 22.78° C | 93% | 1006.7 hPa | 0 mm | - | 161 W/m² | - |
| 1777419164 | 22.78° C | 94% | 1006.8 hPa | 0 mm | - | 150 W/m² | - |
| 1777418864 | 22.22° C | 95% | 1006.4 hPa | 0 mm | - | 180 W/m² | - |
| 1777412184 | 26.67° C | 82% | 1004.3 hPa | 0 mm | - | 11 W/m² | - |
| 1777410974 | 26.67° C | 82% | 1004.9 hPa | 0 mm | - | 23 W/m² | - |
| 1777410674 | 26.67° C | 82% | 1005.8 hPa | 0 mm | - | 28 W/m² | - |
| 1777410369 | 26.67° C | 82% | 1006.1 hPa | 0 mm | - | 29 W/m² | - |
| 1777410063 | 27.22° C | 81% | 1005.4 hPa | 0 mm | - | 36 W/m² | - |
| 1777409763 | 27.22° C | 81% | 1005.6 hPa | 0 mm | - | 51 W/m² | - |
* Rain latest hour (hover to see other rain measurements)
** Current wind speed in m/s (hover to see current wind gust speed)